Terminal Aerodrome Forecast
Issued by NWS

Home | Current Version | Previous Version | Text Only | Print | Product List | Glossary On
Versions: 1 2 3 4 5 6 7 8 9 10 11 12 13 14 15 16 17 18
347
FTUS42 KTAE 010520
TAFABY
TAF
KABY 010520Z 0106/0206 17005KT P6SM BKN070
     FM011000 16003KT 5SM BR SCT250
     FM011300 20009KT P6SM SCT040 SCT250
     FM020000 19004KT P6SM SCT250=

USA.gov is the U.S. government's official web portal to all federal, state and local government web resources and services.